sensor_id;sensor_type;location;lat;lon;timestamp;temperature;humidity
72591;SHT31;60625;51.212;5.952;2023-07-09T00:02:25;24.04;67.92
72591;SHT31;60625;51.212;5.952;2023-07-09T00:07:28;24.04;68.24
72591;SHT31;60625;51.212;5.952;2023-07-09T00:12:31;24.04;68.41
72591;SHT31;60625;51.212;5.952;2023-07-09T00:17:32;23.96;68.67
72591;SHT31;60625;51.212;5.952;2023-07-09T00:22:34;23.85;68.92
72591;SHT31;60625;51.212;5.952;2023-07-09T00:27:35;23.73;69.15
72591;SHT31;60625;51.212;5.952;2023-07-09T00:32:36;23.66;69.35
72591;SHT31;60625;51.212;5.952;2023-07-09T00:37:43;23.60;69.63
72591;SHT31;60625;51.212;5.952;2023-07-09T00:42:46;23.57;69.86
72591;SHT31;60625;51.212;5.952;2023-07-09T00:47:54;23.49;70.14
72591;SHT31;60625;51.212;5.952;2023-07-09T00:52:59;23.34;70.45
72591;SHT31;60625;51.212;5.952;2023-07-09T00:58:09;23.13;70.25
72591;SHT31;60625;51.212;5.952;2023-07-09T01:03:20;22.97;70.66
72591;SHT31;60625;51.212;5.952;2023-07-09T01:08:30;22.96;71.05
72591;SHT31;60625;51.212;5.952;2023-07-09T01:13:33;22.95;71.51
72591;SHT31;60625;51.212;5.952;2023-07-09T01:18:35;23.00;71.35
72591;SHT31;60625;51.212;5.952;2023-07-09T01:23:37;22.91;71.00
72591;SHT31;60625;51.212;5.952;2023-07-09T01:28:37;22.92;71.14
72591;SHT31;60625;51.212;5.952;2023-07-09T01:33:44;22.90;71.54
72591;SHT31;60625;51.212;5.952;2023-07-09T01:38:45;22.92;71.74
72591;SHT31;60625;51.212;5.952;2023-07-09T01:43:46;22.86;71.96
72591;SHT31;60625;51.212;5.952;2023-07-09T01:48:49;22.81;72.35
72591;SHT31;60625;51.212;5.952;2023-07-09T01:53:53;22.81;72.42
72591;SHT31;60625;51.212;5.952;2023-07-09T01:58:53;22.76;72.39
72591;SHT31;60625;51.212;5.952;2023-07-09T02:04:01;22.73;72.54
72591;SHT31;60625;51.212;5.952;2023-07-09T02:09:02;22.67;72.75
72591;SHT31;60625;51.212;5.952;2023-07-09T02:14:02;22.57;72.81
72591;SHT31;60625;51.212;5.952;2023-07-09T02:19:03;22.48;72.95
72591;SHT31;60625;51.212;5.952;2023-07-09T02:24:04;22.39;73.09
72591;SHT31;60625;51.212;5.952;2023-07-09T02:29:05;22.32;73.24
72591;SHT31;60625;51.212;5.952;2023-07-09T02:34:06;22.28;73.40
72591;SHT31;60625;51.212;5.952;2023-07-09T02:39:07;22.29;73.25
72591;SHT31;60625;51.212;5.952;2023-07-09T02:44:08;22.32;72.61
72591;SHT31;60625;51.212;5.952;2023-07-09T02:49:10;22.29;72.60
72591;SHT31;60625;51.212;5.952;2023-07-09T02:54:12;22.23;72.38
72591;SHT31;60625;51.212;5.952;2023-07-09T02:59:13;22.27;72.19
72591;SHT31;60625;51.212;5.952;2023-07-09T03:04:14;22.30;71.53
72591;SHT31;60625;51.212;5.952;2023-07-09T03:09:15;22.31;71.61
72591;SHT31;60625;51.212;5.952;2023-07-09T03:14:15;22.12;71.68
72591;SHT31;60625;51.212;5.952;2023-07-09T03:19:16;22.08;71.51
72591;SHT31;60625;51.212;5.952;2023-07-09T03:24:17;22.11;71.63
72591;SHT31;60625;51.212;5.952;2023-07-09T03:29:21;22.10;71.63
72591;SHT31;60625;51.212;5.952;2023-07-09T03:34:21;22.07;71.61
72591;SHT31;60625;51.212;5.952;2023-07-09T03:39:22;22.06;71.50
72591;SHT31;60625;51.212;5.952;2023-07-09T03:44:22;22.11;71.49
72591;SHT31;60625;51.212;5.952;2023-07-09T03:49:23;22.15;71.69
72591;SHT31;60625;51.212;5.952;2023-07-09T03:54:23;22.13;71.76
72591;SHT31;60625;51.212;5.952;2023-07-09T03:59:24;22.11;71.62
72591;SHT31;60625;51.212;5.952;2023-07-09T04:04:25;21.90;71.34
72591;SHT31;60625;51.212;5.952;2023-07-09T04:09:25;21.76;71.99
72591;SHT31;60625;51.212;5.952;2023-07-09T04:14:26;21.78;72.32
72591;SHT31;60625;51.212;5.952;2023-07-09T04:19:26;21.83;72.42
72591;SHT31;60625;51.212;5.952;2023-07-09T04:24:27;21.91;72.33
72591;SHT31;60625;51.212;5.952;2023-07-09T04:29:29;22.06;72.28
72591;SHT31;60625;51.212;5.952;2023-07-09T04:34:30;22.23;71.71
72591;SHT31;60625;51.212;5.952;2023-07-09T04:39:31;22.41;71.35
72591;SHT31;60625;51.212;5.952;2023-07-09T04:44:32;22.56;71.27
72591;SHT31;60625;51.212;5.952;2023-07-09T04:49:33;22.68;71.19
72591;SHT31;60625;51.212;5.952;2023-07-09T04:54:34;22.81;70.80
72591;SHT31;60625;51.212;5.952;2023-07-09T04:59:35;22.96;70.13
72591;SHT31;60625;51.212;5.952;2023-07-09T05:04:39;23.12;69.61
72591;SHT31;60625;51.212;5.952;2023-07-09T05:09:39;23.25;69.79
72591;SHT31;60625;51.212;5.952;2023-07-09T05:14:40;23.37;69.34
72591;SHT31;60625;51.212;5.952;2023-07-09T05:19:41;23.48;68.72
72591;SHT31;60625;51.212;5.952;2023-07-09T05:24:41;23.59;68.06
72591;SHT31;60625;51.212;5.952;2023-07-09T05:29:42;23.67;67.46
72591;SHT31;60625;51.212;5.952;2023-07-09T05:34:43;23.76;67.10
72591;SHT31;60625;51.212;5.952;2023-07-09T05:39:43;23.86;67.07
72591;SHT31;60625;51.212;5.952;2023-07-09T05:44:44;23.95;66.96
72591;SHT31;60625;51.212;5.952;2023-07-09T05:49:48;24.07;67.07
72591;SHT31;60625;51.212;5.952;2023-07-09T05:54:51;24.19;66.69
72591;SHT31;60625;51.212;5.952;2023-07-09T05:59:52;24.31;66.17
72591;SHT31;60625;51.212;5.952;2023-07-09T06:04:53;24.43;66.06
72591;SHT31;60625;51.212;5.952;2023-07-09T06:09:53;24.55;65.88
72591;SHT31;60625;51.212;5.952;2023-07-09T06:14:54;24.70;66.00
72591;SHT31;60625;51.212;5.952;2023-07-09T06:19:55;24.85;65.94
72591;SHT31;60625;51.212;5.952;2023-07-09T06:24:55;25.00;65.48
72591;SHT31;60625;51.212;5.952;2023-07-09T06:29:56;25.14;65.00
72591;SHT31;60625;51.212;5.952;2023-07-09T06:34:56;25.29;64.79
72591;SHT31;60625;51.212;5.952;2023-07-09T06:39:56;25.46;64.57
72591;SHT31;60625;51.212;5.952;2023-07-09T06:44:57;25.67;64.39
72591;SHT31;60625;51.212;5.952;2023-07-09T06:49:57;25.90;63.17
72591;SHT31;60625;51.212;5.952;2023-07-09T06:54:58;26.10;62.76
72591;SHT31;60625;51.212;5.952;2023-07-09T06:59:58;26.35;62.44
72591;SHT31;60625;51.212;5.952;2023-07-09T07:04:59;26.66;61.94
72591;SHT31;60625;51.212;5.952;2023-07-09T07:09:59;26.98;60.99
72591;SHT31;60625;51.212;5.952;2023-07-09T07:15:00;27.28;59.58
72591;SHT31;60625;51.212;5.952;2023-07-09T07:20:00;27.56;59.36
72591;SHT31;60625;51.212;5.952;2023-07-09T07:25:01;27.88;57.93
72591;SHT31;60625;51.212;5.952;2023-07-09T07:30:03;28.14;56.45
72591;SHT31;60625;51.212;5.952;2023-07-09T07:35:08;28.43;55.97
72591;SHT31;60625;51.212;5.952;2023-07-09T07:40:09;28.69;55.07
72591;SHT31;60625;51.212;5.952;2023-07-09T07:45:11;28.96;54.87
72591;SHT31;60625;51.212;5.952;2023-07-09T07:50:11;29.26;53.94
72591;SHT31;60625;51.212;5.952;2023-07-09T07:55:12;29.54;53.10
72591;SHT31;60625;51.212;5.952;2023-07-09T08:00:13;29.78;52.85
72591;SHT31;60625;51.212;5.952;2023-07-09T08:05:14;30.00;51.92
72591;SHT31;60625;51.212;5.952;2023-07-09T08:10:15;30.20;51.01
72591;SHT31;60625;51.212;5.952;2023-07-09T08:15:16;30.42;49.97
72591;SHT31;60625;51.212;5.952;2023-07-09T08:20:18;30.62;49.97
72591;SHT31;60625;51.212;5.952;2023-07-09T08:25:18;30.88;49.72
72591;SHT31;60625;51.212;5.952;2023-07-09T08:30:18;31.11;49.49
72591;SHT31;60625;51.212;5.952;2023-07-09T08:35:19;31.28;49.15
72591;SHT31;60625;51.212;5.952;2023-07-09T08:40:19;31.49;48.94
72591;SHT31;60625;51.212;5.952;2023-07-09T08:50:45;32.08;48.07
72591;SHT31;60625;51.212;5.952;2023-07-09T08:55:51;32.36;47.26
72591;SHT31;60625;51.212;5.952;2023-07-09T09:00:56;32.61;46.56
72591;SHT31;60625;51.212;5.952;2023-07-09T09:06:01;32.84;46.21
72591;SHT31;60625;51.212;5.952;2023-07-09T09:16:42;33.23;45.03
72591;SHT31;60625;51.212;5.952;2023-07-09T09:21:39;33.33;44.65
72591;SHT31;60625;51.212;5.952;2023-07-09T09:26:40;33.34;44.51
72591;SHT31;60625;51.212;5.952;2023-07-09T09:31:44;33.55;44.34
72591;SHT31;60625;51.212;5.952;2023-07-09T09:36:49;33.93;43.10
72591;SHT31;60625;51.212;5.952;2023-07-09T09:41:52;34.24;42.51
72591;SHT31;60625;51.212;5.952;2023-07-09T09:46:58;34.48;41.55
72591;SHT31;60625;51.212;5.952;2023-07-09T09:52:01;34.77;41.08
72591;SHT31;60625;51.212;5.952;2023-07-09T09:57:03;35.03;40.44
72591;SHT31;60625;51.212;5.952;2023-07-09T10:02:21;35.27;39.53
72591;SHT31;60625;51.212;5.952;2023-07-09T10:07:30;35.33;38.74
72591;SHT31;60625;51.212;5.952;2023-07-09T10:12:42;35.58;39.12
72591;SHT31;60625;51.212;5.952;2023-07-09T10:34:02;36.49;37.70
72591;SHT31;60625;51.212;5.952;2023-07-09T10:39:40;36.66;37.03
72591;SHT31;60625;51.212;5.952;2023-07-09T10:44:48;36.77;36.99
72591;SHT31;60625;51.212;5.952;2023-07-09T10:49:58;36.85;36.67
72591;SHT31;60625;51.212;5.952;2023-07-09T10:55:08;36.87;37.12
72591;SHT31;60625;51.212;5.952;2023-07-09T11:00:20;37.05;36.40
72591;SHT31;60625;51.212;5.952;2023-07-09T11:05:25;36.91;36.06
72591;SHT31;60625;51.212;5.952;2023-07-09T11:15:37;37.33;35.28
72591;SHT31;60625;51.212;5.952;2023-07-09T11:20:44;37.19;35.90
72591;SHT31;60625;51.212;5.952;2023-07-09T11:25:47;37.23;35.19
72591;SHT31;60625;51.212;5.952;2023-07-09T11:30:50;37.22;34.67
72591;SHT31;60625;51.212;5.952;2023-07-09T11:35:54;37.32;34.88
72591;SHT31;60625;51.212;5.952;2023-07-09T11:46:52;37.32;34.31
72591;SHT31;60625;51.212;5.952;2023-07-09T11:57:56;37.28;34.88
72591;SHT31;60625;51.212;5.952;2023-07-09T12:03:01;37.37;34.38
72591;SHT31;60625;51.212;5.952;2023-07-09T12:08:02;37.29;33.67
72591;SHT31;60625;51.212;5.952;2023-07-09T12:13:11;37.31;33.49
72591;SHT31;60625;51.212;5.952;2023-07-09T12:18:13;37.42;33.56
72591;SHT31;60625;51.212;5.952;2023-07-09T12:23:25;37.33;32.88
72591;SHT31;60625;51.212;5.952;2023-07-09T12:28:30;37.31;32.38
72591;SHT31;60625;51.212;5.952;2023-07-09T12:33:30;37.21;32.35
72591;SHT31;60625;51.212;5.952;2023-07-09T12:38:38;37.10;32.93
72591;SHT31;60625;51.212;5.952;2023-07-09T12:43:43;36.94;33.65
72591;SHT31;60625;51.212;5.952;2023-07-09T12:48:44;36.72;34.46
72591;SHT31;60625;51.212;5.952;2023-07-09T12:53:48;36.43;34.89
72591;SHT31;60625;51.212;5.952;2023-07-09T12:58:49;36.14;35.24
72591;SHT31;60625;51.212;5.952;2023-07-09T13:03:56;35.99;35.90
72591;SHT31;60625;51.212;5.952;2023-07-09T13:09:00;35.63;36.39
72591;SHT31;60625;51.212;5.952;2023-07-09T13:14:04;35.31;37.24
72591;SHT31;60625;51.212;5.952;2023-07-09T13:19:21;35.06;37.88
72591;SHT31;60625;51.212;5.952;2023-07-09T13:24:25;34.75;38.28
72591;SHT31;60625;51.212;5.952;2023-07-09T13:29:30;34.42;38.40
72591;SHT31;60625;51.212;5.952;2023-07-09T13:34:33;34.17;38.82
72591;SHT31;60625;51.212;5.952;2023-07-09T13:39:34;33.77;43.40
72591;SHT31;60625;51.212;5.952;2023-07-09T13:44:34;32.75;49.28
72591;SHT31;60625;51.212;5.952;2023-07-09T13:49:35;31.86;52.44
72591;SHT31;60625;51.212;5.952;2023-07-09T13:54:36;31.18;55.53
72591;SHT31;60625;51.212;5.952;2023-07-09T13:59:38;30.63;57.90
72591;SHT31;60625;51.212;5.952;2023-07-09T14:04:39;29.69;60.54
72591;SHT31;60625;51.212;5.952;2023-07-09T14:09:39;28.40;62.19
72591;SHT31;60625;51.212;5.952;2023-07-09T14:14:40;27.37;63.79
72591;SHT31;60625;51.212;5.952;2023-07-09T14:19:43;26.95;65.01
72591;SHT31;60625;51.212;5.952;2023-07-09T14:24:43;26.80;66.39
72591;SHT31;60625;51.212;5.952;2023-07-09T14:29:45;26.56;67.44
72591;SHT31;60625;51.212;5.952;2023-07-09T14:34:45;26.52;68.46
72591;SHT31;60625;51.212;5.952;2023-07-09T14:39:46;26.74;68.46
72591;SHT31;60625;51.212;5.952;2023-07-09T14:44:47;26.81;68.26
72591;SHT31;60625;51.212;5.952;2023-07-09T14:49:47;26.75;68.32
72591;SHT31;60625;51.212;5.952;2023-07-09T14:54:48;26.64;69.01
72591;SHT31;60625;51.212;5.952;2023-07-09T14:59:52;26.46;69.50
72591;SHT31;60625;51.212;5.952;2023-07-09T15:04:53;26.71;69.87
72591;SHT31;60625;51.212;5.952;2023-07-09T15:09:54;26.95;69.58
72591;SHT31;60625;51.212;5.952;2023-07-09T15:15:00;27.15;68.42
72591;SHT31;60625;51.212;5.952;2023-07-09T15:20:14;27.27;67.92
72591;SHT31;60625;51.212;5.952;2023-07-09T15:25:21;27.45;67.04
72591;SHT31;60625;51.212;5.952;2023-07-09T15:30:29;27.52;66.15
72591;SHT31;60625;51.212;5.952;2023-07-09T15:35:32;27.53;65.36
72591;SHT31;60625;51.212;5.952;2023-07-09T15:40:35;27.68;65.81
72591;SHT31;60625;51.212;5.952;2023-07-09T15:45:37;27.85;65.25
72591;SHT31;60625;51.212;5.952;2023-07-09T15:50:42;28.07;64.35
72591;SHT31;60625;51.212;5.952;2023-07-09T15:55:43;28.09;64.18
72591;SHT31;60625;51.212;5.952;2023-07-09T16:00:44;28.13;64.10
72591;SHT31;60625;51.212;5.952;2023-07-09T16:05:45;28.06;63.26
72591;SHT31;60625;51.212;5.952;2023-07-09T16:10:46;28.15;63.60
72591;SHT31;60625;51.212;5.952;2023-07-09T16:15:46;28.05;64.38
72591;SHT31;60625;51.212;5.952;2023-07-09T16:20:48;27.90;65.01
72591;SHT31;60625;51.212;5.952;2023-07-09T16:25:50;27.67;65.28
72591;SHT31;60625;51.212;5.952;2023-07-09T16:30:51;27.59;66.28
72591;SHT31;60625;51.212;5.952;2023-07-09T16:35:54;27.63;66.54
72591;SHT31;60625;51.212;5.952;2023-07-09T16:40:55;27.69;66.98
72591;SHT31;60625;51.212;5.952;2023-07-09T16:45:55;27.83;67.02
72591;SHT31;60625;51.212;5.952;2023-07-09T16:50:56;27.97;66.49
72591;SHT31;60625;51.212;5.952;2023-07-09T16:55:57;27.97;66.07
72591;SHT31;60625;51.212;5.952;2023-07-09T17:00:57;28.06;65.92
72591;SHT31;60625;51.212;5.952;2023-07-09T17:05:58;28.15;65.65
72591;SHT31;60625;51.212;5.952;2023-07-09T17:10:59;28.10;65.93
72591;SHT31;60625;51.212;5.952;2023-07-09T17:16:03;28.12;66.00
72591;SHT31;60625;51.212;5.952;2023-07-09T17:21:03;28.16;66.04
72591;SHT31;60625;51.212;5.952;2023-07-09T17:26:04;27.99;66.25
72591;SHT31;60625;51.212;5.952;2023-07-09T17:31:05;27.82;66.54
72591;SHT31;60625;51.212;5.952;2023-07-09T17:36:08;27.67;67.31
72591;SHT31;60625;51.212;5.952;2023-07-09T17:41:13;27.45;68.15
72591;SHT31;60625;51.212;5.952;2023-07-09T17:46:13;27.33;68.65
72591;SHT31;60625;51.212;5.952;2023-07-09T17:51:15;27.21;69.29
72591;SHT31;60625;51.212;5.952;2023-07-09T17:56:19;27.09;69.29
72591;SHT31;60625;51.212;5.952;2023-07-09T18:01:22;26.94;69.71
72591;SHT31;60625;51.212;5.952;2023-07-09T18:06:23;26.82;70.17
72591;SHT31;60625;51.212;5.952;2023-07-09T18:11:26;26.63;70.54
72591;SHT31;60625;51.212;5.952;2023-07-09T18:16:28;26.62;70.79
72591;SHT31;60625;51.212;5.952;2023-07-09T18:21:29;26.63;71.29
72591;SHT31;60625;51.212;5.952;2023-07-09T18:26:30;26.65;71.28
72591;SHT31;60625;51.212;5.952;2023-07-09T18:31:31;26.63;71.68
72591;SHT31;60625;51.212;5.952;2023-07-09T18:36:32;26.55;71.96
72591;SHT31;60625;51.212;5.952;2023-07-09T18:41:32;26.53;71.85
72591;SHT31;60625;51.212;5.952;2023-07-09T18:46:32;26.51;71.60
72591;SHT31;60625;51.212;5.952;2023-07-09T18:51:33;26.49;71.47
72591;SHT31;60625;51.212;5.952;2023-07-09T18:56:33;26.39;71.80
72591;SHT31;60625;51.212;5.952;2023-07-09T19:01:34;26.25;73.08
72591;SHT31;60625;51.212;5.952;2023-07-09T19:06:35;26.07;73.38
72591;SHT31;60625;51.212;5.952;2023-07-09T19:11:36;26.01;73.47
72591;SHT31;60625;51.212;5.952;2023-07-09T19:16:36;25.99;73.72
72591;SHT31;60625;51.212;5.952;2023-07-09T19:21:37;25.96;73.99
72591;SHT31;60625;51.212;5.952;2023-07-09T19:26:38;25.87;74.50
72591;SHT31;60625;51.212;5.952;2023-07-09T19:31:39;25.88;74.68
72591;SHT31;60625;51.212;5.952;2023-07-09T19:36:42;25.76;74.90
72591;SHT31;60625;51.212;5.952;2023-07-09T19:41:42;25.53;74.09
72591;SHT31;60625;51.212;5.952;2023-07-09T19:46:43;25.39;73.86
72591;SHT31;60625;51.212;5.952;2023-07-09T19:51:43;25.24;73.40
72591;SHT31;60625;51.212;5.952;2023-07-09T19:56:45;25.05;73.44
72591;SHT31;60625;51.212;5.952;2023-07-09T20:01:48;24.91;73.43
72591;SHT31;60625;51.212;5.952;2023-07-09T20:06:51;24.82;73.40
72591;SHT31;60625;51.212;5.952;2023-07-09T20:11:51;24.71;73.54
72591;SHT31;60625;51.212;5.952;2023-07-09T20:16:51;24.58;73.65
72591;SHT31;60625;51.212;5.952;2023-07-09T20:21:52;24.43;73.83
72591;SHT31;60625;51.212;5.952;2023-07-09T20:26:52;24.38;73.93
72591;SHT31;60625;51.212;5.952;2023-07-09T20:31:55;24.31;73.92
72591;SHT31;60625;51.212;5.952;2023-07-09T20:36:57;24.18;74.03
72591;SHT31;60625;51.212;5.952;2023-07-09T20:41:57;24.02;74.58
72591;SHT31;60625;51.212;5.952;2023-07-09T20:46:58;23.90;74.96
72591;SHT31;60625;51.212;5.952;2023-07-09T20:51:58;23.71;74.94
72591;SHT31;60625;51.212;5.952;2023-07-09T20:57:00;23.51;74.76
72591;SHT31;60625;51.212;5.952;2023-07-09T21:02:07;23.34;74.97
72591;SHT31;60625;51.212;5.952;2023-07-09T21:07:24;23.17;74.84
72591;SHT31;60625;51.212;5.952;2023-07-09T21:12:24;23.01;74.68
72591;SHT31;60625;51.212;5.952;2023-07-09T21:17:25;22.90;74.86
72591;SHT31;60625;51.212;5.952;2023-07-09T21:22:29;22.76;74.89
72591;SHT31;60625;51.212;5.952;2023-07-09T21:27:29;22.71;74.92
72591;SHT31;60625;51.212;5.952;2023-07-09T21:32:30;22.70;74.94
72591;SHT31;60625;51.212;5.952;2023-07-09T21:37:30;22.68;75.05
72591;SHT31;60625;51.212;5.952;2023-07-09T21:42:31;22.68;75.09
72591;SHT31;60625;51.212;5.952;2023-07-09T21:47:31;22.67;75.10
72591;SHT31;60625;51.212;5.952;2023-07-09T21:52:32;22.61;75.25
72591;SHT31;60625;51.212;5.952;2023-07-09T21:57:32;22.56;75.43
72591;SHT31;60625;51.212;5.952;2023-07-09T22:02:33;22.52;75.44
72591;SHT31;60625;51.212;5.952;2023-07-09T22:07:33;22.48;75.58
72591;SHT31;60625;51.212;5.952;2023-07-09T22:12:34;22.43;75.79
72591;SHT31;60625;51.212;5.952;2023-07-09T22:17:34;22.35;76.03
72591;SHT31;60625;51.212;5.952;2023-07-09T22:22:35;22.41;75.78
72591;SHT31;60625;51.212;5.952;2023-07-09T22:27:36;22.40;75.75
72591;SHT31;60625;51.212;5.952;2023-07-09T22:32:37;22.35;75.94
72591;SHT31;60625;51.212;5.952;2023-07-09T22:37:38;22.32;76.04
72591;SHT31;60625;51.212;5.952;2023-07-09T22:42:43;22.20;76.39
72591;SHT31;60625;51.212;5.952;2023-07-09T22:47:44;22.17;76.56
72591;SHT31;60625;51.212;5.952;2023-07-09T22:52:50;22.16;76.54
72591;SHT31;60625;51.212;5.952;2023-07-09T22:57:50;22.07;76.72
72591;SHT31;60625;51.212;5.952;2023-07-09T23:02:51;21.97;76.82
72591;SHT31;60625;51.212;5.952;2023-07-09T23:07:55;21.89;77.05
72591;SHT31;60625;51.212;5.952;2023-07-09T23:12:55;21.82;77.14
72591;SHT31;60625;51.212;5.952;2023-07-09T23:17:57;21.72;77.29
72591;SHT31;60625;51.212;5.952;2023-07-09T23:22:58;21.65;77.44
72591;SHT31;60625;51.212;5.952;2023-07-09T23:27:59;21.59;77.53
72591;SHT31;60625;51.212;5.952;2023-07-09T23:33:02;21.54;77.58
72591;SHT31;60625;51.212;5.952;2023-07-09T23:38:27;21.56;77.56
72591;SHT31;60625;51.212;5.952;2023-07-09T23:43:33;21.53;77.63
72591;SHT31;60625;51.212;5.952;2023-07-09T23:48:39;21.50;77.80
72591;SHT31;60625;51.212;5.952;2023-07-09T23:53:43;21.51;77.89
72591;SHT31;60625;51.212;5.952;2023-07-09T23:58:44;21.48;78.06
